sensor_id;sensor_type;location;lat;lon;timestamp;P1;durP1;ratioP1;P2;durP2;ratioP2
6902;SDS011;20232;49.408;8.702;2024-02-16T05:01:50;6.70;;;3.23;;
6902;SDS011;20232;49.408;8.702;2024-02-16T05:04:15;4.03;;;2.80;;
6902;SDS011;20232;49.408;8.702;2024-02-16T05:06:42;4.43;;;3.27;;
6902;SDS011;20232;49.408;8.702;2024-02-16T05:09:08;4.70;;;3.50;;
6902;SDS011;20232;49.408;8.702;2024-02-16T05:11:33;3.07;;;2.80;;
6902;SDS011;20232;49.408;8.702;2024-02-16T05:13:59;5.17;;;2.67;;
6902;SDS011;20232;49.408;8.702;2024-02-16T05:16:25;4.10;;;3.40;;
6902;SDS011;20232;49.408;8.702;2024-02-16T05:18:50;4.40;;;3.40;;
6902;SDS011;20232;49.408;8.702;2024-02-16T05:21:16;4.00;;;3.40;;
6902;SDS011;20232;49.408;8.702;2024-02-16T05:23:41;4.13;;;3.20;;
6902;SDS011;20232;49.408;8.702;2024-02-16T05:26:07;3.70;;;2.90;;
6902;SDS011;20232;49.408;8.702;2024-02-16T05:28:32;3.87;;;3.03;;
6902;SDS011;20232;49.408;8.702;2024-02-16T05:30:59;3.90;;;3.40;;
6902;SDS011;20232;49.408;8.702;2024-02-16T05:33:29;3.53;;;3.23;;
6902;SDS011;20232;49.408;8.702;2024-02-16T05:35:55;3.93;;;3.20;;
6902;SDS011;20232;49.408;8.702;2024-02-16T05:38:23;3.87;;;2.97;;
6902;SDS011;20232;49.408;8.702;2024-02-16T05:41:00;4.40;;;3.30;;
6902;SDS011;20232;49.408;8.702;2024-02-16T05:43:25;5.70;;;3.43;;
6902;SDS011;20232;49.408;8.702;2024-02-16T05:45:51;6.13;;;3.43;;
6902;SDS011;20232;49.408;8.702;2024-02-16T05:48:16;5.90;;;3.53;;
6902;SDS011;20232;49.408;8.702;2024-02-16T05:50:42;4.60;;;3.20;;
6902;SDS011;20232;49.408;8.702;2024-02-16T05:53:08;7.53;;;3.53;;
6902;SDS011;20232;49.408;8.702;2024-02-16T05:55:36;3.33;;;3.03;;
6902;SDS011;20232;49.408;8.702;2024-02-16T05:58:01;6.50;;;3.80;;
6902;SDS011;20232;49.408;8.702;2024-02-16T06:00:30;4.67;;;3.40;;
6902;SDS011;20232;49.408;8.702;2024-02-16T06:02:58;5.93;;;3.20;;
6902;SDS011;20232;49.408;8.702;2024-02-16T06:05:23;4.50;;;3.20;;
6902;SDS011;20232;49.408;8.702;2024-02-16T06:07:48;3.80;;;3.03;;
6902;SDS011;20232;49.408;8.702;2024-02-16T06:10:14;4.40;;;3.10;;
6902;SDS011;20232;49.408;8.702;2024-02-16T06:12:39;7.00;;;3.37;;
6902;SDS011;20232;49.408;8.702;2024-02-16T06:15:05;3.53;;;3.00;;
6902;SDS011;20232;49.408;8.702;2024-02-16T06:17:30;4.10;;;3.40;;
6902;SDS011;20232;49.408;8.702;2024-02-16T06:19:56;4.60;;;3.30;;
6902;SDS011;20232;49.408;8.702;2024-02-16T06:22:21;3.43;;;3.13;;
6902;SDS011;20232;49.408;8.702;2024-02-16T06:24:47;6.63;;;3.03;;
6902;SDS011;20232;49.408;8.702;2024-02-16T06:27:12;4.23;;;3.20;;
6902;SDS011;20232;49.408;8.702;2024-02-16T06:29:38;5.20;;;3.50;;
6902;SDS011;20232;49.408;8.702;2024-02-16T06:32:03;4.67;;;3.33;;
6902;SDS011;20232;49.408;8.702;2024-02-16T06:34:29;5.37;;;3.33;;
6902;SDS011;20232;49.408;8.702;2024-02-16T06:36:55;4.80;;;3.17;;
6902;SDS011;20232;49.408;8.702;2024-02-16T06:39:21;4.17;;;3.30;;
6902;SDS011;20232;49.408;8.702;2024-02-16T06:41:47;4.30;;;3.03;;
6902;SDS011;20232;49.408;8.702;2024-02-16T06:44:12;4.47;;;3.03;;
6902;SDS011;20232;49.408;8.702;2024-02-16T06:46:38;4.57;;;3.47;;
6902;SDS011;20232;49.408;8.702;2024-02-16T06:49:04;5.57;;;3.33;;
6902;SDS011;20232;49.408;8.702;2024-02-16T06:51:29;4.60;;;3.33;;
6902;SDS011;20232;49.408;8.702;2024-02-16T06:53:55;6.17;;;3.90;;
6902;SDS011;20232;49.408;8.702;2024-02-16T06:56:20;6.47;;;3.73;;
6902;SDS011;20232;49.408;8.702;2024-02-16T06:58:46;6.37;;;3.10;;
6902;SDS011;20232;49.408;8.702;2024-02-16T07:01:12;3.50;;;3.20;;
6902;SDS011;20232;49.408;8.702;2024-02-16T07:03:38;5.40;;;3.50;;
6902;SDS011;20232;49.408;8.702;2024-02-16T07:06:03;5.80;;;3.47;;
6902;SDS011;20232;49.408;8.702;2024-02-16T07:08:32;5.23;;;3.70;;
6902;SDS011;20232;49.408;8.702;2024-02-16T07:10:58;4.87;;;3.47;;
6902;SDS011;20232;49.408;8.702;2024-02-16T07:13:23;3.87;;;3.57;;
6902;SDS011;20232;49.408;8.702;2024-02-16T07:15:49;4.40;;;2.97;;
6902;SDS011;20232;49.408;8.702;2024-02-16T07:18:15;3.90;;;3.43;;
6902;SDS011;20232;49.408;8.702;2024-02-16T07:20:40;4.37;;;3.17;;
6902;SDS011;20232;49.408;8.702;2024-02-16T07:23:06;4.57;;;3.07;;
6902;SDS011;20232;49.408;8.702;2024-02-16T07:25:31;6.33;;;3.47;;
6902;SDS011;20232;49.408;8.702;2024-02-16T07:27:57;3.67;;;3.10;;
6902;SDS011;20232;49.408;8.702;2024-02-16T07:30:22;4.37;;;3.27;;
6902;SDS011;20232;49.408;8.702;2024-02-16T07:32:48;4.60;;;3.30;;
6902;SDS011;20232;49.408;8.702;2024-02-16T07:35:15;3.77;;;2.80;;
6902;SDS011;20232;49.408;8.702;2024-02-16T07:37:41;3.73;;;3.43;;
6902;SDS011;20232;49.408;8.702;2024-02-16T07:40:07;4.17;;;3.17;;
6902;SDS011;20232;49.408;8.702;2024-02-16T07:42:37;5.50;;;3.30;;
6902;SDS011;20232;49.408;8.702;2024-02-16T07:45:04;3.43;;;2.93;;
6902;SDS011;20232;49.408;8.702;2024-02-16T07:47:31;4.07;;;2.97;;
6902;SDS011;20232;49.408;8.702;2024-02-16T07:49:57;4.50;;;3.00;;
6902;SDS011;20232;49.408;8.702;2024-02-16T07:52:22;6.30;;;3.40;;
6902;SDS011;20232;49.408;8.702;2024-02-16T07:54:47;3.20;;;2.90;;
6902;SDS011;20232;49.408;8.702;2024-02-16T07:57:13;4.30;;;3.60;;
6902;SDS011;20232;49.408;8.702;2024-02-16T07:59:40;6.60;;;3.03;;
6902;SDS011;20232;49.408;8.702;2024-02-16T08:02:05;4.63;;;3.37;;
6902;SDS011;20232;49.408;8.702;2024-02-16T08:04:32;3.83;;;3.30;;
6902;SDS011;20232;49.408;8.702;2024-02-16T08:06:57;5.17;;;3.17;;
6902;SDS011;20232;49.408;8.702;2024-02-16T08:09:23;5.90;;;3.10;;
6902;SDS011;20232;49.408;8.702;2024-02-16T08:11:48;4.23;;;3.23;;
6902;SDS011;20232;49.408;8.702;2024-02-16T08:14:14;4.40;;;3.10;;
6902;SDS011;20232;49.408;8.702;2024-02-16T08:16:39;3.23;;;3.03;;
6902;SDS011;20232;49.408;8.702;2024-02-16T08:19:04;4.60;;;3.23;;
6902;SDS011;20232;49.408;8.702;2024-02-16T08:21:30;7.17;;;3.40;;
6902;SDS011;20232;49.408;8.702;2024-02-16T08:23:56;6.20;;;4.40;;
6902;SDS011;20232;49.408;8.702;2024-02-16T08:26:21;4.63;;;3.40;;
6902;SDS011;20232;49.408;8.702;2024-02-16T08:28:47;3.90;;;3.60;;
6902;SDS011;20232;49.408;8.702;2024-02-16T08:31:18;4.23;;;3.33;;
6902;SDS011;20232;49.408;8.702;2024-02-16T08:33:44;4.03;;;3.47;;
6902;SDS011;20232;49.408;8.702;2024-02-16T08:36:10;5.27;;;3.70;;
6902;SDS011;20232;49.408;8.702;2024-02-16T08:38:38;4.00;;;3.47;;
6902;SDS011;20232;49.408;8.702;2024-02-16T08:41:04;5.33;;;3.30;;
6902;SDS011;20232;49.408;8.702;2024-02-16T08:43:29;3.47;;;3.17;;
6902;SDS011;20232;49.408;8.702;2024-02-16T08:45:55;5.20;;;3.20;;
6902;SDS011;20232;49.408;8.702;2024-02-16T08:48:21;5.43;;;3.53;;
6902;SDS011;20232;49.408;8.702;2024-02-16T08:50:47;6.43;;;3.50;;
6902;SDS011;20232;49.408;8.702;2024-02-16T08:53:13;4.67;;;3.83;;
6902;SDS011;20232;49.408;8.702;2024-02-16T08:55:39;5.30;;;3.67;;
6902;SDS011;20232;49.408;8.702;2024-02-16T08:58:07;4.57;;;3.60;;
6902;SDS011;20232;49.408;8.702;2024-02-16T09:00:32;6.03;;;3.40;;
6902;SDS011;20232;49.408;8.702;2024-02-16T09:02:58;4.30;;;3.50;;
6902;SDS011;20232;49.408;8.702;2024-02-16T09:05:23;3.50;;;3.10;;
6902;SDS011;20232;49.408;8.702;2024-02-16T09:07:49;6.77;;;3.67;;
6902;SDS011;20232;49.408;8.702;2024-02-16T09:10:14;4.17;;;3.57;;
6902;SDS011;20232;49.408;8.702;2024-02-16T09:12:40;5.20;;;3.90;;
6902;SDS011;20232;49.408;8.702;2024-02-16T09:15:05;4.33;;;3.23;;
6902;SDS011;20232;49.408;8.702;2024-02-16T09:17:31;4.47;;;3.40;;
6902;SDS011;20232;49.408;8.702;2024-02-16T09:19:57;5.73;;;3.50;;
6902;SDS011;20232;49.408;8.702;2024-02-16T09:22:22;5.17;;;3.93;;
6902;SDS011;20232;49.408;8.702;2024-02-16T09:24:48;4.13;;;3.40;;
6902;SDS011;20232;49.408;8.702;2024-02-16T09:27:13;8.43;;;3.50;;
6902;SDS011;20232;49.408;8.702;2024-02-16T09:29:39;5.33;;;3.60;;
6902;SDS011;20232;49.408;8.702;2024-02-16T09:32:05;4.30;;;3.50;;
6902;SDS011;20232;49.408;8.702;2024-02-16T09:34:31;4.67;;;3.10;;
6902;SDS011;20232;49.408;8.702;2024-02-16T09:36:56;4.67;;;3.50;;
6902;SDS011;20232;49.408;8.702;2024-02-16T09:39:22;4.67;;;4.10;;
6902;SDS011;20232;49.408;8.702;2024-02-16T09:41:49;5.33;;;3.80;;
6902;SDS011;20232;49.408;8.702;2024-02-16T09:44:16;5.90;;;4.03;;
6902;SDS011;20232;49.408;8.702;2024-02-16T09:46:41;3.33;;;3.00;;
6902;SDS011;20232;49.408;8.702;2024-02-16T09:49:07;4.60;;;3.80;;
6902;SDS011;20232;49.408;8.702;2024-02-16T09:51:35;4.47;;;3.37;;
6902;SDS011;20232;49.408;8.702;2024-02-16T09:54:01;7.20;;;3.97;;
6902;SDS011;20232;49.408;8.702;2024-02-16T09:56:28;3.60;;;3.27;;
6902;SDS011;20232;49.408;8.702;2024-02-16T09:58:53;5.57;;;3.30;;
6902;SDS011;20232;49.408;8.702;2024-02-16T10:01:22;4.93;;;3.13;;
6902;SDS011;20232;49.408;8.702;2024-02-16T10:03:49;4.90;;;3.17;;
6902;SDS011;20232;49.408;8.702;2024-02-16T10:06:15;4.57;;;3.40;;
6902;SDS011;20232;49.408;8.702;2024-02-16T10:08:50;3.43;;;3.10;;
6902;SDS011;20232;49.408;8.702;2024-02-16T10:11:17;4.53;;;3.80;;
6902;SDS011;20232;49.408;8.702;2024-02-16T10:13:56;4.40;;;3.53;;
6902;SDS011;20232;49.408;8.702;2024-02-16T10:16:22;3.73;;;3.30;;
6902;SDS011;20232;49.408;8.702;2024-02-16T10:18:48;3.73;;;3.10;;
6902;SDS011;20232;49.408;8.702;2024-02-16T10:21:23;5.20;;;3.00;;
6902;SDS011;20232;49.408;8.702;2024-02-16T10:24:22;5.27;;;3.67;;
6902;SDS011;20232;49.408;8.702;2024-02-16T10:26:40;4.03;;;2.90;;
6902;SDS011;20232;49.408;8.702;2024-02-16T10:29:07;3.77;;;2.60;;
6902;SDS011;20232;49.408;8.702;2024-02-16T10:31:34;3.27;;;2.57;;
6902;SDS011;20232;49.408;8.702;2024-02-16T10:34:00;3.13;;;2.83;;
6902;SDS011;20232;49.408;8.702;2024-02-16T10:36:35;5.33;;;2.50;;
6902;SDS011;20232;49.408;8.702;2024-02-16T10:39:02;4.70;;;3.03;;
6902;SDS011;20232;49.408;8.702;2024-02-16T10:41:30;3.90;;;2.90;;
6902;SDS011;20232;49.408;8.702;2024-02-16T10:43:59;3.47;;;2.50;;
6902;SDS011;20232;49.408;8.702;2024-02-16T10:46:26;5.77;;;2.43;;
6902;SDS011;20232;49.408;8.702;2024-02-16T10:48:52;4.17;;;2.60;;
6902;SDS011;20232;49.408;8.702;2024-02-16T10:51:19;3.37;;;3.07;;
6902;SDS011;20232;49.408;8.702;2024-02-16T10:53:47;3.83;;;2.60;;
6902;SDS011;20232;49.408;8.702;2024-02-16T10:56:13;4.60;;;2.70;;
6902;SDS011;20232;49.408;8.702;2024-02-16T10:58:38;4.37;;;2.63;;
6902;SDS011;20232;49.408;8.702;2024-02-16T11:01:09;3.90;;;2.87;;
6902;SDS011;20232;49.408;8.702;2024-02-16T11:03:38;3.93;;;2.67;;
6902;SDS011;20232;49.408;8.702;2024-02-16T11:06:14;4.90;;;2.77;;
6902;SDS011;20232;49.408;8.702;2024-02-16T11:08:43;4.83;;;2.70;;
6902;SDS011;20232;49.408;8.702;2024-02-16T11:11:09;5.10;;;2.70;;
6902;SDS011;20232;49.408;8.702;2024-02-16T11:13:38;3.17;;;2.87;;
6902;SDS011;20232;49.408;8.702;2024-02-16T11:16:08;3.50;;;2.83;;
6902;SDS011;20232;49.408;8.702;2024-02-16T11:18:38;4.47;;;2.83;;
6902;SDS011;20232;49.408;8.702;2024-02-16T11:21:05;4.70;;;2.77;;
6902;SDS011;20232;49.408;8.702;2024-02-16T11:23:33;4.03;;;2.87;;
6902;SDS011;20232;49.408;8.702;2024-02-16T11:26:00;4.40;;;2.83;;
6902;SDS011;20232;49.408;8.702;2024-02-16T11:28:31;4.80;;;2.90;;
6902;SDS011;20232;49.408;8.702;2024-02-16T11:30:57;3.67;;;2.80;;
6902;SDS011;20232;49.408;8.702;2024-02-16T11:33:22;4.23;;;2.93;;
6902;SDS011;20232;49.408;8.702;2024-02-16T11:35:55;4.23;;;2.67;;
6902;SDS011;20232;49.408;8.702;2024-02-16T11:38:27;3.53;;;2.67;;
6902;SDS011;20232;49.408;8.702;2024-02-16T11:40:59;5.17;;;2.73;;
6902;SDS011;20232;49.408;8.702;2024-02-16T11:43:27;4.30;;;2.60;;
6902;SDS011;20232;49.408;8.702;2024-02-16T11:45:53;3.80;;;2.87;;
6902;SDS011;20232;49.408;8.702;2024-02-16T11:48:19;24.43;;;9.00;;
6902;SDS011;20232;49.408;8.702;2024-02-16T11:50:46;3.00;;;2.53;;
6902;SDS011;20232;49.408;8.702;2024-02-16T11:53:15;3.03;;;2.50;;
6902;SDS011;20232;49.408;8.702;2024-02-16T11:55:45;3.80;;;2.77;;
6902;SDS011;20232;49.408;8.702;2024-02-16T11:58:12;4.87;;;2.70;;
6902;SDS011;20232;49.408;8.702;2024-02-16T12:00:39;4.60;;;2.73;;
6902;SDS011;20232;49.408;8.702;2024-02-16T12:03:06;5.87;;;2.30;;
6902;SDS011;20232;49.408;8.702;2024-02-16T12:05:33;3.97;;;2.33;;
6902;SDS011;20232;49.408;8.702;2024-02-16T12:07:58;2.73;;;2.13;;
6902;SDS011;20232;49.408;8.702;2024-02-16T12:10:24;4.37;;;2.23;;
6902;SDS011;20232;49.408;8.702;2024-02-16T12:12:50;3.10;;;2.50;;
6902;SDS011;20232;49.408;8.702;2024-02-16T12:15:15;2.53;;;2.20;;
6902;SDS011;20232;49.408;8.702;2024-02-16T12:17:43;4.00;;;2.73;;
6902;SDS011;20232;49.408;8.702;2024-02-16T12:20:14;4.27;;;2.60;;
6902;SDS011;20232;49.408;8.702;2024-02-16T12:22:40;4.97;;;2.50;;
6902;SDS011;20232;49.408;8.702;2024-02-16T12:25:05;5.00;;;2.80;;
6902;SDS011;20232;49.408;8.702;2024-02-16T12:27:31;3.23;;;2.30;;
6902;SDS011;20232;49.408;8.702;2024-02-16T12:29:56;4.40;;;2.43;;
6902;SDS011;20232;49.408;8.702;2024-02-16T12:32:22;3.30;;;2.30;;
6902;SDS011;20232;49.408;8.702;2024-02-16T12:34:48;3.30;;;2.30;;
6902;SDS011;20232;49.408;8.702;2024-02-16T12:37:15;3.83;;;2.43;;
6902;SDS011;20232;49.408;8.702;2024-02-16T12:39:40;5.80;;;2.97;;
6902;SDS011;20232;49.408;8.702;2024-02-16T12:42:06;4.03;;;2.43;;
6902;SDS011;20232;49.408;8.702;2024-02-16T12:44:31;5.27;;;2.20;;
6902;SDS011;20232;49.408;8.702;2024-02-16T12:46:57;3.07;;;2.27;;
6902;SDS011;20232;49.408;8.702;2024-02-16T12:49:22;4.93;;;2.47;;
6902;SDS011;20232;49.408;8.702;2024-02-16T12:51:48;3.83;;;2.30;;
6902;SDS011;20232;49.408;8.702;2024-02-16T12:54:15;6.17;;;2.93;;
6902;SDS011;20232;49.408;8.702;2024-02-16T12:56:44;6.17;;;3.73;;
6902;SDS011;20232;49.408;8.702;2024-02-16T12:59:13;3.43;;;2.20;;
6902;SDS011;20232;49.408;8.702;2024-02-16T13:01:38;4.13;;;2.60;;
6902;SDS011;20232;49.408;8.702;2024-02-16T13:04:04;3.30;;;2.30;;
6902;SDS011;20232;49.408;8.702;2024-02-16T13:06:30;4.00;;;2.63;;
6902;SDS011;20232;49.408;8.702;2024-02-16T13:08:56;4.87;;;2.50;;
6902;SDS011;20232;49.408;8.702;2024-02-16T13:11:21;3.87;;;2.30;;
6902;SDS011;20232;49.408;8.702;2024-02-16T13:13:46;7.30;;;2.10;;
6902;SDS011;20232;49.408;8.702;2024-02-16T13:16:12;4.53;;;2.03;;
6902;SDS011;20232;49.408;8.702;2024-02-16T13:18:37;2.80;;;2.00;;
6902;SDS011;20232;49.408;8.702;2024-02-16T13:21:03;5.23;;;2.60;;
6902;SDS011;20232;49.408;8.702;2024-02-16T13:23:28;5.43;;;2.47;;
6902;SDS011;20232;49.408;8.702;2024-02-16T13:25:56;3.77;;;2.10;;
6902;SDS011;20232;49.408;8.702;2024-02-16T13:28:21;4.73;;;2.10;;
6902;SDS011;20232;49.408;8.702;2024-02-16T13:30:47;5.27;;;1.90;;
6902;SDS011;20232;49.408;8.702;2024-02-16T13:33:12;3.30;;;2.00;;
6902;SDS011;20232;49.408;8.702;2024-02-16T13:35:37;5.80;;;2.13;;
6902;SDS011;20232;49.408;8.702;2024-02-16T13:38:04;7.83;;;2.33;;
6902;SDS011;20232;49.408;8.702;2024-02-16T13:40:29;3.57;;;2.03;;
6902;SDS011;20232;49.408;8.702;2024-02-16T13:42:55;4.07;;;1.90;;
6902;SDS011;20232;49.408;8.702;2024-02-16T13:45:26;3.87;;;2.30;;
6902;SDS011;20232;49.408;8.702;2024-02-16T13:47:52;4.77;;;2.23;;
6902;SDS011;20232;49.408;8.702;2024-02-16T13:50:17;5.87;;;2.40;;
6902;SDS011;20232;49.408;8.702;2024-02-16T13:52:42;4.70;;;2.27;;
6902;SDS011;20232;49.408;8.702;2024-02-16T13:55:08;4.30;;;2.47;;
6902;SDS011;20232;49.408;8.702;2024-02-16T13:57:34;2.77;;;1.90;;
6902;SDS011;20232;49.408;8.702;2024-02-16T13:59:59;4.23;;;2.00;;
6902;SDS011;20232;49.408;8.702;2024-02-16T14:02:24;3.90;;;2.20;;
6902;SDS011;20232;49.408;8.702;2024-02-16T14:04:50;3.87;;;2.00;;
6902;SDS011;20232;49.408;8.702;2024-02-16T14:07:16;2.87;;;1.90;;
6902;SDS011;20232;49.408;8.702;2024-02-16T14:09:41;3.27;;;1.93;;
6902;SDS011;20232;49.408;8.702;2024-02-16T14:12:07;4.73;;;2.10;;
6902;SDS011;20232;49.408;8.702;2024-02-16T14:14:32;4.37;;;2.53;;
6902;SDS011;20232;49.408;8.702;2024-02-16T14:16:58;3.30;;;2.07;;
6902;SDS011;20232;49.408;8.702;2024-02-16T14:19:23;2.17;;;1.97;;
6902;SDS011;20232;49.408;8.702;2024-02-16T14:21:49;4.63;;;2.00;;
6902;SDS011;20232;49.408;8.702;2024-02-16T14:24:14;3.13;;;2.00;;
6902;SDS011;20232;49.408;8.702;2024-02-16T14:26:41;2.07;;;1.80;;
6902;SDS011;20232;49.408;8.702;2024-02-16T14:29:07;3.97;;;1.87;;
6902;SDS011;20232;49.408;8.702;2024-02-16T14:31:33;2.20;;;1.73;;
6902;SDS011;20232;49.408;8.702;2024-02-16T14:33:59;3.67;;;1.90;;
6902;SDS011;20232;49.408;8.702;2024-02-16T14:36:24;3.47;;;2.03;;
6902;SDS011;20232;49.408;8.702;2024-02-16T14:38:50;2.00;;;1.80;;
6902;SDS011;20232;49.408;8.702;2024-02-16T14:41:15;2.43;;;1.93;;
6902;SDS011;20232;49.408;8.702;2024-02-16T14:43:41;3.17;;;2.03;;
6902;SDS011;20232;49.408;8.702;2024-02-16T14:46:08;2.53;;;1.70;;
6902;SDS011;20232;49.408;8.702;2024-02-16T14:48:34;2.23;;;1.90;;
6902;SDS011;20232;49.408;8.702;2024-02-16T14:50:59;4.70;;;2.07;;
6902;SDS011;20232;49.408;8.702;2024-02-16T14:53:25;3.70;;;1.90;;
6902;SDS011;20232;49.408;8.702;2024-02-16T14:55:50;4.73;;;1.83;;
6902;SDS011;20232;49.408;8.702;2024-02-16T14:58:16;3.00;;;2.07;;
6902;SDS011;20232;49.408;8.702;2024-02-16T15:00:42;2.33;;;1.90;;
6902;SDS011;20232;49.408;8.702;2024-02-16T15:03:08;6.93;;;2.20;;
6902;SDS011;20232;49.408;8.702;2024-02-16T15:05:34;5.87;;;2.17;;
6902;SDS011;20232;49.408;8.702;2024-02-16T15:07:59;5.47;;;2.73;;
6902;SDS011;20232;49.408;8.702;2024-02-16T15:10:26;2.23;;;1.93;;
6902;SDS011;20232;49.408;8.702;2024-02-16T15:12:52;5.27;;;1.97;;
6902;SDS011;20232;49.408;8.702;2024-02-16T15:15:17;4.53;;;2.00;;
6902;SDS011;20232;49.408;8.702;2024-02-16T15:17:43;7.83;;;3.00;;
6902;SDS011;20232;49.408;8.702;2024-02-16T15:20:08;3.10;;;2.00;;
6902;SDS011;20232;49.408;8.702;2024-02-16T15:22:35;5.63;;;2.17;;
6902;SDS011;20232;49.408;8.702;2024-02-16T15:25:01;5.13;;;2.23;;
6902;SDS011;20232;49.408;8.702;2024-02-16T15:27:27;2.77;;;2.10;;
6902;SDS011;20232;49.408;8.702;2024-02-16T15:29:52;4.53;;;2.30;;
6902;SDS011;20232;49.408;8.702;2024-02-16T15:32:17;4.07;;;2.30;;
6902;SDS011;20232;49.408;8.702;2024-02-16T15:34:43;3.97;;;2.10;;
6902;SDS011;20232;49.408;8.702;2024-02-16T15:37:11;4.70;;;2.20;;
6902;SDS011;20232;49.408;8.702;2024-02-16T15:39:37;3.07;;;1.97;;
6902;SDS011;20232;49.408;8.702;2024-02-16T15:42:03;3.13;;;2.07;;
6902;SDS011;20232;49.408;8.702;2024-02-16T15:44:29;4.20;;;2.00;;
6902;SDS011;20232;49.408;8.702;2024-02-16T15:46:54;5.60;;;2.17;;
6902;SDS011;20232;49.408;8.702;2024-02-16T15:49:20;4.33;;;2.20;;
6902;SDS011;20232;49.408;8.702;2024-02-16T15:51:45;2.80;;;2.27;;
6902;SDS011;20232;49.408;8.702;2024-02-16T15:54:11;5.13;;;2.20;;
6902;SDS011;20232;49.408;8.702;2024-02-16T15:56:36;4.60;;;2.27;;
6902;SDS011;20232;49.408;8.702;2024-02-16T15:59:02;5.87;;;2.77;;
6902;SDS011;20232;49.408;8.702;2024-02-16T16:01:27;4.90;;;2.30;;
6902;SDS011;20232;49.408;8.702;2024-02-16T16:03:53;3.77;;;2.10;;
6902;SDS011;20232;49.408;8.702;2024-02-16T16:06:19;2.97;;;2.03;;
6902;SDS011;20232;49.408;8.702;2024-02-16T16:08:44;4.67;;;1.97;;
6902;SDS011;20232;49.408;8.702;2024-02-16T16:11:10;6.07;;;2.50;;
6902;SDS011;20232;49.408;8.702;2024-02-16T16:13:36;3.20;;;2.30;;
6902;SDS011;20232;49.408;8.702;2024-02-16T16:16:02;4.70;;;2.40;;
6902;SDS011;20232;49.408;8.702;2024-02-16T16:18:28;4.10;;;2.60;;
6902;SDS011;20232;49.408;8.702;2024-02-16T16:20:59;6.13;;;3.00;;
6902;SDS011;20232;49.408;8.702;2024-02-16T16:23:26;4.60;;;2.77;;
6902;SDS011;20232;49.408;8.702;2024-02-16T16:25:54;5.67;;;2.83;;
6902;SDS011;20232;49.408;8.702;2024-02-16T16:28:20;5.60;;;2.90;;
6902;SDS011;20232;49.408;8.702;2024-02-16T16:30:45;5.90;;;2.90;;
6902;SDS011;20232;49.408;8.702;2024-02-16T16:33:10;4.63;;;3.00;;
6902;SDS011;20232;49.408;8.702;2024-02-16T16:35:36;5.73;;;2.93;;
6902;SDS011;20232;49.408;8.702;2024-02-16T16:38:01;6.73;;;3.20;;
6902;SDS011;20232;49.408;8.702;2024-02-16T16:40:27;5.80;;;3.23;;
6902;SDS011;20232;49.408;8.702;2024-02-16T16:42:52;6.80;;;3.37;;
6902;SDS011;20232;49.408;8.702;2024-02-16T16:45:18;6.20;;;3.60;;
6902;SDS011;20232;49.408;8.702;2024-02-16T16:47:43;4.77;;;3.57;;
6902;SDS011;20232;49.408;8.702;2024-02-16T16:50:09;6.80;;;4.03;;
6902;SDS011;20232;49.408;8.702;2024-02-16T16:52:35;5.57;;;3.27;;
6902;SDS011;20232;49.408;8.702;2024-02-16T16:55:01;5.40;;;3.37;;
6902;SDS011;20232;49.408;8.702;2024-02-16T16:57:26;5.27;;;4.00;;
6902;SDS011;20232;49.408;8.702;2024-02-16T16:59:53;4.33;;;3.43;;
6902;SDS011;20232;49.408;8.702;2024-02-16T17:02:18;6.80;;;3.60;;
6902;SDS011;20232;49.408;8.702;2024-02-16T17:04:45;7.93;;;3.93;;
6902;SDS011;20232;49.408;8.702;2024-02-16T17:07:10;5.17;;;3.80;;
6902;SDS011;20232;49.408;8.702;2024-02-16T17:09:36;7.43;;;3.40;;
6902;SDS011;20232;49.408;8.702;2024-02-16T17:12:01;5.40;;;3.33;;
6902;SDS011;20232;49.408;8.702;2024-02-16T17:14:29;5.07;;;3.53;;
6902;SDS011;20232;49.408;8.702;2024-02-16T17:16:57;5.97;;;3.60;;
6902;SDS011;20232;49.408;8.702;2024-02-16T17:19:22;5.33;;;3.13;;
6902;SDS011;20232;49.408;8.702;2024-02-16T17:21:48;6.03;;;3.70;;
6902;SDS011;20232;49.408;8.702;2024-02-16T17:24:13;4.50;;;3.33;;
6902;SDS011;20232;49.408;8.702;2024-02-16T17:26:38;3.90;;;3.50;;
6902;SDS011;20232;49.408;8.702;2024-02-16T17:29:04;7.13;;;4.37;;
6902;SDS011;20232;49.408;8.702;2024-02-16T17:31:29;6.50;;;3.73;;
6902;SDS011;20232;49.408;8.702;2024-02-16T17:33:55;5.27;;;4.40;;
6902;SDS011;20232;49.408;8.702;2024-02-16T17:36:20;5.00;;;4.27;;
6902;SDS011;20232;49.408;8.702;2024-02-16T17:38:46;7.47;;;4.87;;
6902;SDS011;20232;49.408;8.702;2024-02-16T17:41:11;5.57;;;4.60;;
6902;SDS011;20232;49.408;8.702;2024-02-16T17:43:37;6.47;;;4.37;;
6902;SDS011;20232;49.408;8.702;2024-02-16T17:46:04;7.83;;;4.67;;
6902;SDS011;20232;49.408;8.702;2024-02-16T17:48:31;5.83;;;4.07;;
6902;SDS011;20232;49.408;8.702;2024-02-16T17:50:57;4.70;;;4.10;;
6902;SDS011;20232;49.408;8.702;2024-02-16T17:53:22;4.93;;;4.07;;
6902;SDS011;20232;49.408;8.702;2024-02-16T17:55:48;6.03;;;4.03;;
6902;SDS011;20232;49.408;8.702;2024-02-16T17:58:13;5.37;;;4.00;;
6902;SDS011;20232;49.408;8.702;2024-02-16T18:00:39;5.37;;;3.60;;
6902;SDS011;20232;49.408;8.702;2024-02-16T18:03:04;5.47;;;3.83;;
6902;SDS011;20232;49.408;8.702;2024-02-16T18:05:30;4.83;;;3.93;;
6902;SDS011;20232;49.408;8.702;2024-02-16T18:07:55;4.53;;;4.03;;
6902;SDS011;20232;49.408;8.702;2024-02-16T18:10:21;4.17;;;3.77;;
6902;SDS011;20232;49.408;8.702;2024-02-16T18:12:46;5.23;;;4.40;;
6902;SDS011;20232;49.408;8.702;2024-02-16T18:15:12;5.57;;;4.13;;
6902;SDS011;20232;49.408;8.702;2024-02-16T18:17:38;5.70;;;4.10;;
6902;SDS011;20232;49.408;8.702;2024-02-16T18:20:05;6.27;;;4.13;;
6902;SDS011;20232;49.408;8.702;2024-02-16T18:22:31;5.53;;;3.80;;
6902;SDS011;20232;49.408;8.702;2024-02-16T18:24:57;6.13;;;4.10;;
6902;SDS011;20232;49.408;8.702;2024-02-16T18:27:22;6.70;;;3.83;;
6902;SDS011;20232;49.408;8.702;2024-02-16T18:29:48;4.20;;;3.37;;
6902;SDS011;20232;49.408;8.702;2024-02-16T18:32:13;6.90;;;4.20;;
6902;SDS011;20232;49.408;8.702;2024-02-16T18:34:38;6.60;;;4.10;;
6902;SDS011;20232;49.408;8.702;2024-02-16T18:37:04;4.37;;;4.00;;
6902;SDS011;20232;49.408;8.702;2024-02-16T18:39:29;5.50;;;4.00;;
6902;SDS011;20232;49.408;8.702;2024-02-16T18:41:56;4.53;;;3.93;;
6902;SDS011;20232;49.408;8.702;2024-02-16T18:44:22;5.93;;;4.40;;
6902;SDS011;20232;49.408;8.702;2024-02-16T18:46:47;7.60;;;4.43;;
6902;SDS011;20232;49.408;8.702;2024-02-16T18:49:13;6.63;;;4.37;;
6902;SDS011;20232;49.408;8.702;2024-02-16T18:51:38;4.63;;;4.20;;
6902;SDS011;20232;49.408;8.702;2024-02-16T18:54:03;8.07;;;5.17;;
6902;SDS011;20232;49.408;8.702;2024-02-16T18:56:30;8.77;;;5.40;;
6902;SDS011;20232;49.408;8.702;2024-02-16T18:58:56;6.53;;;4.97;;
6902;SDS011;20232;49.408;8.702;2024-02-16T19:01:22;7.50;;;5.33;;
6902;SDS011;20232;49.408;8.702;2024-02-16T19:03:48;7.87;;;5.10;;
6902;SDS011;20232;49.408;8.702;2024-02-16T19:06:13;6.17;;;4.43;;
6902;SDS011;20232;49.408;8.702;2024-02-16T19:08:39;6.50;;;4.57;;
6902;SDS011;20232;49.408;8.702;2024-02-16T19:11:04;8.17;;;4.60;;
6902;SDS011;20232;49.408;8.702;2024-02-16T19:13:30;7.90;;;4.83;;
6902;SDS011;20232;49.408;8.702;2024-02-16T19:15:56;5.63;;;4.93;;
6902;SDS011;20232;49.408;8.702;2024-02-16T19:18:24;6.53;;;4.87;;
6902;SDS011;20232;49.408;8.702;2024-02-16T19:20:49;5.97;;;4.87;;
6902;SDS011;20232;49.408;8.702;2024-02-16T19:23:15;5.77;;;5.17;;
6902;SDS011;20232;49.408;8.702;2024-02-16T19:25:41;5.70;;;5.10;;
6902;SDS011;20232;49.408;8.702;2024-02-16T19:28:07;6.80;;;5.90;;
6902;SDS011;20232;49.408;8.702;2024-02-16T19:30:32;7.63;;;5.43;;
6902;SDS011;20232;49.408;8.702;2024-02-16T19:32:57;6.53;;;4.97;;
6902;SDS011;20232;49.408;8.702;2024-02-16T19:35:23;7.70;;;5.20;;
6902;SDS011;20232;49.408;8.702;2024-02-16T19:37:48;6.77;;;5.50;;
6902;SDS011;20232;49.408;8.702;2024-02-16T19:40:14;6.80;;;5.70;;
6902;SDS011;20232;49.408;8.702;2024-02-16T19:42:40;6.67;;;5.40;;
6902;SDS011;20232;49.408;8.702;2024-02-16T19:45:05;6.67;;;5.33;;
6902;SDS011;20232;49.408;8.702;2024-02-16T19:47:31;6.80;;;5.37;;
6902;SDS011;20232;49.408;8.702;2024-02-16T19:49:56;7.40;;;6.43;;
6902;SDS011;20232;49.408;8.702;2024-02-16T19:52:22;6.43;;;5.70;;
6902;SDS011;20232;49.408;8.702;2024-02-16T19:54:47;8.20;;;6.20;;